Willow Wood, Ohio
Current Conditions -  °F | °C
As of 5:51 PM on Thursday 20 Nov 2014 (Local Time) from KHTS Reporting Station
Clear Clear  
Wind Chill: 25°   Ceiling: Unl
Heat Index: 31°   Visibility: 10mi
Dew Point: 16°   Wind: 6mph
Humidity: 54%   Direction: NA
Pressure: 30.15"   Gusts: NA
Location:  38.56°N, 82.47°W
Report Text: KHTS 202251Z VRB05KT 10SM CLR M01/M09 A3015 RMK AO2 SLP215 T10061089
Loading
Personal Weather Stations






























Interactive Weather Map New forecast layout! Learn more

10-Day Weather Forecast

Advertisements
Track Severe Weather on mobile